Flight Track Log - Related Links

Times and Time Zones

All times are in EDT time to prevent confusion due to time zone crossing. See the LXJ524 flight status page for this flight to view local times or setup timezone preferences in your user account.

Time Position Orientation Groundspeed Altitude Reporting Facility
EDT Latitude Longitude Course Direction KTS MPH feet Rate Location/Type
Sat 05:36:39 PM 41.1000 -73.7667 270° West 195 224 3,000  Level New York TRACON
Sat 05:37:39 PM 41.1000 -73.8500 270° West 243 280 3,900 1,900 Climbing New York TRACON
Sat 05:38:39 PM 41.0667 -73.9500 246° West 262 302 6,800 3,286 Climbing New York TRACON
Sat 05:39:45 PM 41.0500 -74.0500 258° West 281 323 10,800 2,950 Climbing New York TRACON
Sat 05:40:39 PM 41.0167 -74.1500 246° West 348 400 12,700 2,211 Climbing New York TRACON
Sat 05:41:39 PM 40.9500 -74.2833 237° Southwest 394 453 15,000 1,328 Climbing New York TRACON
Sat 05:42:50 PM 40.9053 -74.4197 247° West 401 461 15,600 744 Climbing New York Center
Sat 05:43:48 PM 40.9069 -74.5656 271° West 356 410 16,600 712 Climbing New York Center
Sat 05:44:48 PM 40.9094 -74.6808 272° West 374 430 17,000 197 Climbing New York Center
Sat 05:45:50 PM 40.9128 -74.8267 272° West 415 478 17,000 450 Level New York Center
Sat 05:46:48 PM 40.9014 -74.9714 264° West 409 471 17,900 1,780 Climbing New York Center
Sat 05:47:48 PM 40.8803 -75.0964 257° West 398 458 20,500 2,400 Climbing New York Center
Sat 05:48:48 PM 40.8519 -75.2456 256° West 406 467 22,700 2,098 Climbing New York Center
Sat 05:49:51 PM 40.8231 -75.4000 256° West 424 488 24,800 2,050 Climbing New York Center
Sat 05:50:48 PM 40.7914 -75.5622 256° West 443 510 26,800 2,017 Climbing New York Center
Sat 05:51:50 PM 40.7642 -75.7192 257° West 448 516 28,800 2,000 Climbing New York Center
Sat 05:52:48 PM 40.7322 -75.8811 255° West 453 521 30,800 1,950 Climbing New York Center
Sat 05:53:50 PM 40.7003 -76.0431 255° West 458 527 32,700 1,950 Climbing New York Center
Sat 05:54:48 PM 40.6742 -76.2053 258° West 463 533 34,700 1,966 Climbing New York Center
Sat 05:55:49 PM 40.6831 -76.3703 274° West 456 525 36,600 1,869 Climbing New York Center
Sat 05:56:50 PM 40.7050 -76.5200 281° West 440 506 38,500 1,736 Climbing New York Center
Sat 05:57:50 PM 40.7267 -76.6725 281° West 429 494 40,100 1,311 Climbing New York Center
Sat 05:58:49 PM 40.7486 -76.8167 281° West 417 480 41,100 1,119 Climbing New York Center
Sat 05:59:48 PM 40.7703 -76.9639 281° West 412 474 42,300 950 Climbing New York Center
Sat 06:00:49 PM 40.7919 -77.1056 281° West 407 468 43,000 344 Climbing New York Center
Sat 06:01:50 PM 40.8128 -77.2558 280° West 412 474 43,000  Level New York Center
Sat 06:02:48 PM 40.8369 -77.4228 281° West 417 480 43,000  Level New York Center
Sat 06:03:31 PM 40.8517 -77.5142 282° West 429 494 43,000  Level Cleveland Center
Sat 06:04:33 PM 40.8725 -77.6725 280° West 440 506 43,000  Level Cleveland Center
Sat 06:05:34 PM 40.8986 -77.8614 280° West 439 505 43,000  Level Cleveland Center
Sat 06:06:36 PM 40.9197 -78.0194 280° West 438 504 43,000 48 Level Cleveland Center
Sat 06:07:38 PM 40.9394 -78.1767 279° West 437 503 43,100 484 Climbing Cleveland Center
Sat 06:08:40 PM 40.9589 -78.3347 279° West 431 496 44,000 878 Climbing Cleveland Center
Sat 06:09:41 PM 40.9772 -78.4858 279° West 420 483 44,900 488 Climbing Cleveland Center
Sat 06:10:43 PM 40.9969 -78.6394 280° West 421 484 45,000 48 Climbing Cleveland Center
Sat 06:11:45 PM 41.0131 -78.7886 278° West 419 482 45,000  Level Cleveland Center
Sat 06:12:46 PM 41.0319 -78.9444 279° West 426 490 45,000  Level Cleveland Center
Sat 06:13:48 PM 41.0525 -79.1306 278° West 427 491 45,000  Level Cleveland Center
Sat 06:14:50 PM 41.0700 -79.2869 278° West 428 493 45,000  Level Cleveland Center
Sat 06:15:51 PM 41.0883 -79.4381 279° West 422 486 45,000  Level Cleveland Center
Sat 06:16:53 PM 41.1050 -79.5817 279° West 402 463 45,000  Level Cleveland Center
Sat 06:17:55 PM 41.1197 -79.7225 278° West 391 450 45,000  Level Cleveland Center
Sat 06:18:57 PM 41.1356 -79.8642 278° West 383 441 45,000  Level Cleveland Center
Sat 06:19:58 PM 41.1528 -80.0203 278° West 374 430 45,000  Level Cleveland Center
Sat 06:21:00 PM 41.1667 -80.1567 278° West 374 430 45,000  Level Cleveland Center
Sat 06:22:02 PM 41.1811 -80.2944 278° West 377 434 45,000  Level Cleveland Center
Sat 06:23:04 PM 41.1964 -80.4403 278° West 380 437 45,000  Level Cleveland Center
Sat 06:24:05 PM 41.2103 -80.5833 277° West 386 444 45,000  Level Cleveland Center
Sat 06:25:07 PM 41.2247 -80.7269 278° West 388 447 45,000  Level Cleveland Center
Sat 06:26:09 PM 41.2394 -80.8717 278° West 390 449 45,000  Level Cleveland Center
Sat 06:27:10 PM 41.2531 -81.0175 277° West 392 451 45,000  Level Cleveland Center
Sat 06:28:12 PM 41.2692 -81.1878 277° West 392 451 45,000  Level Cleveland Center
Sat 06:29:14 PM 41.2836 -81.3342 278° West 394 453 45,000  Level Cleveland Center
Sat 06:30:15 PM 41.2961 -81.4653 277° West 394 453 45,000  Level Cleveland Center
Sat 06:31:17 PM 41.3092 -81.6125 277° West 399 459 45,000  Level Cleveland Center
Sat 06:32:19 PM 41.3231 -81.7592 277° West 400 460 45,000  Level Cleveland Center
Sat 06:33:20 PM 41.3383 -81.9364 277° West 403 464 45,000  Level Cleveland Center
Sat 06:34:22 PM 41.3508 -82.0836 277° West 403 464 45,000  Level Cleveland Center
Sat 06:35:24 PM 41.3631 -82.2394 276° West 403 464 45,000  Level Cleveland Center
Sat 06:36:25 PM 41.3719 -82.3894 275° West 403 464 45,000  Level Cleveland Center
Sat 06:37:27 PM 41.3806 -82.5419 274° West 406 467 45,000  Level Cleveland Center
Sat 06:38:28 PM 41.3892 -82.6931 274° West 407 468 45,000  Level Cleveland Center
Sat 06:39:30 PM 41.3975 -82.8439 274° West 407 468 45,000  Level Cleveland Center
Sat 06:40:31 PM 41.4064 -82.9983 274° West 411 473 45,000  Level Cleveland Center
Sat 06:41:33 PM 41.4133 -83.1522 273° West 411 473 45,000  Level Cleveland Center
Sat 06:42:34 PM 41.4214 -83.3058 274° West 412 474 45,000  Level Cleveland Center
Sat 06:43:36 PM 41.4275 -83.4583 273° West 412 474 45,000  Level Cleveland Center
Sat 06:44:37 PM 41.4358 -83.6117 274° West 412 474 45,000  Level Cleveland Center
Sat 06:45:39 PM 41.4425 -83.7658 273° West 413 475 45,000  Level Cleveland Center
Sat 06:46:40 PM 41.4514 -83.9511 274° West 415 478 45,000  Level Cleveland Center
Sat 06:47:41 PM 41.4583 -84.1050 273° West 415 478 45,000  Level Cleveland Center
Sat 06:48:43 PM 41.4650 -84.2503 274° West 416 479 45,000  Level Cleveland Center
Sat 06:49:44 PM 41.4711 -84.4053 273° West 417 480 45,000  Level Cleveland Center
Sat 06:50:46 PM 41.4767 -84.5608 273° West 419 482 45,000  Level Cleveland Center
Sat 06:51:47 PM 41.4833 -84.7156 273° West 419 482 45,000  Level Cleveland Center
Sat 06:52:48 PM 41.4883 -84.8719 272° West 419 482 45,000  Level Cleveland Center
Sat 06:53:49 PM 41.4950 -85.0611 273° West 421 484 45,000  Level Cleveland Center
Sat 06:54:51 PM 41.5000 -85.2200 272° West 422 486 45,000  Level Cleveland Center
Sat 06:55:52 PM 41.5056 -85.3800 273° West 424 488 45,000  Level Cleveland Center
Sat 06:56:53 PM 41.5108 -85.5442 273° West 427 491 45,000  Level Cleveland Center
Sat 06:57:55 PM 41.5153 -85.7044 272° West 427 491 45,000  Level Cleveland Center
Sat 06:58:56 PM 41.5206 -85.8603 273° West 425 489 45,000  Level Cleveland Center
Sat 06:59:57 PM 41.5250 -86.0186 272° West 424 488 45,000  Level Cleveland Center
Sat 07:00:58 PM 41.5283 -86.1761 272° West 424 488 45,000  Level Cleveland Center
Sat 07:02:00 PM 41.5314 -86.3336 272° West 424 488 45,000  Level Cleveland Center
Sat 07:03:08 PM 41.5342 -86.5228 271° West 428 493 45,000  Level Chicago Center
Sat 07:04:10 PM 41.5356 -86.6783 271° West 421 484 45,000  Level Chicago Center
Sat 07:05:11 PM 41.5372 -86.8200 271° West 420 483 45,000  Level Chicago Center
Sat 07:06:13 PM 41.5394 -87.0094 271° West 424 488 45,000  Level Chicago Center
Sat 07:07:14 PM 41.5406 -87.1658 271° West 422 486 45,000  Level Chicago Center
Sat 07:08:16 PM 41.5417 -87.3250 271° West 427 491 45,000  Level Chicago Center
Sat 07:09:17 PM 41.5439 -87.4808 271° West 424 488 45,000  Level Chicago Center
Sat 07:10:19 PM 41.5450 -87.6347 271° West 416 479 45,000  Level Chicago Center
Sat 07:11:20 PM 41.5456 -87.7928 270° West 422 486 45,000  Level Chicago Center
Sat 07:12:22 PM 41.5467 -87.9811 271° West 426 490 45,000  Level Chicago Center
Sat 07:13:23 PM 41.5478 -88.1367 271° West 429 494 45,000  Level Chicago Center
Sat 07:14:25 PM 41.5483 -88.2944 270° West 430 495 45,000  Level Chicago Center
Sat 07:15:26 PM 41.5481 -88.4517 270° West 430 495 45,000  Level Chicago Center
Sat 07:16:28 PM 41.5481 -88.6075 270° West 428 493 45,000  Level Chicago Center
Sat 07:17:29 PM 41.5492 -88.7628 271° West 422 486 45,000  Level Chicago Center
Sat 07:18:31 PM 41.5483 -88.9503 270° West 422 486 45,000  Level Chicago Center
Sat 07:19:32 PM 41.5486 -89.1072 270° West 423 487 45,000  Level Chicago Center
Sat 07:20:34 PM 41.5486 -89.2636 270° West 423 487 45,000  Level Chicago Center
Sat 07:21:35 PM 41.5486 -89.4200 270° West 422 486 45,000  Level Chicago Center
Sat 07:22:37 PM 41.5489 -89.5764 270° West 422 486 45,000  Level Chicago Center
Sat 07:23:38 PM 41.5478 -89.7353 270° West 424 488 45,000  Level Chicago Center
Sat 07:24:40 PM 41.5467 -89.8931 270° West 424 488 45,000  Level Chicago Center
Sat 07:25:42 PM 41.5442 -90.0511 269° West 425 489 45,000  Level Chicago Center
Sat 07:26:43 PM 41.5428 -90.2411 270° West 426 490 45,000  Level Chicago Center
Sat 07:27:45 PM 41.5414 -90.3992 269° West 426 490 45,000  Level Chicago Center
Sat 07:28:46 PM 41.5389 -90.5561 269° West 426 490 45,000  Level Chicago Center
Sat 07:29:48 PM 41.5361 -90.7231 269° West 426 490 45,000  Level Chicago Center
Sat 07:30:49 PM 41.5333 -90.8786 269° West 426 490 45,000  Level Chicago Center
Sat 07:31:51 PM 41.5311 -91.0333 269° West 424 488 45,000  Level Chicago Center
Sat 07:32:52 PM 41.5278 -91.1914 268° West 425 489 45,000  Level Chicago Center
Sat 07:33:54 PM 41.5247 -91.3489 269° West 425 489 45,000  Level Chicago Center
Sat 07:34:55 PM 41.5219 -91.4981 269° West 409 471 45,000  Level Chicago Center
Sat 07:35:57 PM 41.5175 -91.6733 268° West 401 461 45,000  Level Chicago Center
Sat 07:36:58 PM 41.5133 -91.8222 268° West 403 464 45,000  Level Chicago Center
Sat 07:38:00 PM 41.5078 -91.9703 267° West 403 464 45,000  Level Chicago Center
Sat 07:39:01 PM 41.5031 -92.1183 268° West 403 464 45,000  Level Chicago Center
Sat 07:40:03 PM 41.4975 -92.2658 267° West 402 463 45,000  Level Chicago Center
Sat 07:41:04 PM 41.4922 -92.4081 267° West 405 466 45,000  Level Chicago Center
Sat 07:42:06 PM 41.4853 -92.5844 267° West 405 466 45,000  Level Chicago Center
Sat 07:43:07 PM 41.4792 -92.7336 267° West 405 466 45,000  Level Chicago Center
Sat 07:44:15 PM 41.4731 -92.8839 267° West 404 465 45,000  Level Minneapolis Center
Sat 07:45:16 PM 41.4650 -93.0628 267° West 404 465 45,000  Level Minneapolis Center
Sat 07:46:18 PM 41.4581 -93.2106 266° West 404 465 45,000  Level Minneapolis Center
Sat 07:47:19 PM 41.4517 -93.3583 267° West 404 465 45,000  Level Minneapolis Center
Sat 07:48:20 PM 41.4444 -93.5064 266° West 404 465 45,000  Level Minneapolis Center
Sat 07:49:22 PM 41.4383 -93.6519 267° West 404 465 45,000  Level Minneapolis Center
Sat 07:50:23 PM 41.4386 -93.8008 270° West 404 465 45,000  Level Minneapolis Center
Sat 07:51:25 PM 41.4397 -93.9803 271° West 404 465 45,000  Level Minneapolis Center
Sat 07:52:26 PM 41.4403 -94.1317 270° West 407 468 45,000  Level Minneapolis Center
Sat 07:53:27 PM 41.4406 -94.2697 270° West 408 470 45,000  Level Minneapolis Center
Sat 07:54:29 PM 41.4397 -94.4236 270° West 413 475 45,000  Level Minneapolis Center
Sat 07:55:30 PM 41.4400 -94.5764 270° West 414 476 45,000  Level Minneapolis Center
Sat 07:56:31 PM 41.4408 -94.7606 270° West 414 476 45,000  Level Minneapolis Center
Sat 07:57:33 PM 41.4403 -94.9147 270° West 415 478 45,000  Level Minneapolis Center
Sat 07:58:34 PM 41.4397 -95.0664 270° West 414 476 45,000  Level Minneapolis Center
Sat 07:59:35 PM 41.4389 -95.2194 270° West 414 476 45,000  Level Minneapolis Center
Sat 08:00:37 PM 41.4369 -95.3731 269° West 414 476 45,000  Level Minneapolis Center
Sat 08:01:39 PM 41.4356 -95.5281 269° West 418 481 45,000  Level Minneapolis Center
Sat 08:02:40 PM 41.4333 -95.6828 269° West 419 482 45,000  Level Minneapolis Center
Sat 08:03:41 PM 41.4319 -95.8711 269° West 422 486 45,000  Level Minneapolis Center
Sat 08:04:43 PM 41.4222 -96.0269 265° West 422 486 45,000  Level Minneapolis Center
Sat 08:05:44 PM 41.4011 -96.1825 260° West 423 487 45,000  Level Minneapolis Center
Sat 08:06:45 PM 41.3836 -96.3381 262° West 423 487 45,000  Level Minneapolis Center
Sat 08:07:47 PM 41.3669 -96.4831 261° West 429 494 45,000  Level Minneapolis Center
Sat 08:08:48 PM 41.3475 -96.6392 261° West 430 495 45,000  Level Minneapolis Center
Sat 08:09:49 PM 41.3267 -96.7975 260° West 434 499 45,000  Level Minneapolis Center
Sat 08:10:51 PM 41.3019 -96.9864 260° West 434 499 45,000  Level Minneapolis Center
Sat 08:11:52 PM 41.2836 -97.1439 261° West 434 499 45,000  Level Minneapolis Center
Sat 08:12:53 PM 41.2631 -97.3006 260° West 433 498 45,000  Level Minneapolis Center
Sat 08:13:55 PM 41.2444 -97.4403 260° West 433 498 45,000  Level Minneapolis Center
Sat 08:14:56 PM 41.2197 -97.6283 260° West 432 497 45,000  Level Minneapolis Center
Sat 08:15:57 PM 41.1989 -97.7844 260° West 432 497 45,000  Level Minneapolis Center
Sat 08:16:59 PM 41.1781 -97.9414 260° West 432 497 45,000  Level Minneapolis Center
Sat 08:18:00 PM 41.1567 -98.0975 260° West 431 496 45,000  Level Minneapolis Center
Sat 08:19:01 PM 41.1358 -98.2533 260° West 431 496 45,000  Level Minneapolis Center
Sat 08:20:03 PM 41.1139 -98.4083 259° West 430 495 45,000  Level Minneapolis Center
Sat 08:21:04 PM 41.0900 -98.5778 259° West 429 494 45,000  Level Minneapolis Center
Sat 08:22:05 PM 41.0681 -98.7331 259° West 429 494 45,000  Level Minneapolis Center
Sat 08:23:07 PM 41.0442 -98.8897 259° West 430 495 45,000  Level Minneapolis Center
Sat 08:24:08 PM 41.0222 -99.0444 259° West 430 495 45,000  Level Minneapolis Center
Sat 08:25:09 PM 41.0003 -99.1978 259° West 429 494 45,000  Level Minneapolis Center
Sat 08:26:11 PM 40.9778 -99.3522 259° West 429 494 45,000  Level Minneapolis Center
Sat 08:27:12 PM 40.9550 -99.5069 259° West 429 494 45,000  Level Minneapolis Center
Sat 08:28:14 PM 40.9322 -99.6592 259° West 428 493 45,000  Level Minneapolis Center
Sat 08:29:15 PM 40.9039 -99.8425 259° West 425 489 45,000  Level Minneapolis Center
Sat 08:30:16 PM 40.8803 -99.9953 258° West 425 489 45,000  Level Minneapolis Center
Sat 08:31:18 PM 40.8569 -100.1475 259° West 425 489 45,000  Level Minneapolis Center
Sat 08:32:19 PM 40.8333 -100.2994 258° West 425 489 45,000  Level Minneapolis Center
Sat 08:33:21 PM 40.8089 -100.4519 258° West 425 489 45,000  Level Minneapolis Center
Sat 08:34:22 PM 40.7844 -100.6036 258° West 424 488 45,000  Level Minneapolis Center
Sat 08:35:34 PM 40.7544 -100.7858 258° West 429 494 45,000  Level Denver Center
Sat 08:36:36 PM 40.7267 -100.9475 257° West 428 493 45,000  Level Denver Center
Sat 08:37:37 PM 40.7033 -101.0933 258° West 427 491 45,000  Level Denver Center
Sat 08:38:39 PM 40.6753 -101.2636 258° West 427 491 45,000  Level Denver Center
Sat 08:39:40 PM 40.6503 -101.4100 257° West 427 491 45,000  Level Denver Center
Sat 08:40:42 PM 40.6264 -101.5558 258° West 427 491 45,000  Level Denver Center
Sat 08:41:43 PM 40.5969 -101.7267 257° West 427 491 45,000 -293 Level Denver Center
Sat 08:42:45 PM 40.5714 -101.8747 257° West 430 495 44,400 -1,073 Descending Denver Center
Sat 08:43:46 PM 40.5433 -102.0383 257° West 417 480 42,800 -1,561 Descending Denver Center
Sat 08:44:48 PM 40.5189 -102.1775 257° West 411 473 41,200 -1,512 Descending Denver Center
Sat 08:45:49 PM 40.4900 -102.3378 257° West 407 468 39,700 -1,082 Descending Denver Center
Sat 08:46:50 PM 40.4656 -102.4711 256° West 398 458 39,000 -683 Descending Denver Center
Sat 08:47:52 PM 40.4394 -102.6086 256° West 400 460 38,300 -976 Descending Denver Center
Sat 08:48:53 PM 40.4078 -102.7775 256° West 414 476 37,000 -1,756 Descending Denver Center
Sat 08:49:55 PM 40.3803 -102.9247 256° West 414 476 34,700 -2,098 Descending Denver Center
Sat 08:50:56 PM 40.3522 -103.0708 256° West 415 478 32,700 -1,951 Descending Denver Center
Sat 08:51:58 PM 40.3269 -103.2144 257° West 410 472 30,700 -1,902 Descending Denver Center
Sat 08:52:59 PM 40.2986 -103.3511 255° West 395 455 28,800 -1,854 Descending Denver Center
Sat 08:54:01 PM 40.2728 -103.4878 256° West 391 450 26,900 -1,854 Descending Denver Center
Sat 08:55:02 PM 40.2456 -103.6222 255° West 387 445 25,000 -2,049 Descending Denver Center
Sat 08:56:04 PM 40.2106 -103.7772 254° West 374 430 22,700 -1,951 Descending Denver Center
Sat 08:57:05 PM 40.1581 -103.8936 239° Southwest 398 458 21,000 -1,366 Descending Denver Center
Sat 08:58:07 PM 40.0964 -104.0339 240° Southwest 404 465 19,900 -1,024 Descending Denver Center
Sat 08:59:08 PM 40.0411 -104.1583 240° Southwest 397 457 18,900 -1,065 Descending Denver Center
Sat 09:00:11 PM 39.9806 -104.2914 239° Southwest 396 456 17,700 -1,008 Descending Denver Center
Sat 09:01:13 PM 39.9256 -104.4128 239° Southwest 390 449 16,800 -1,220 Descending Denver Center
Sat 09:02:14 PM 39.8703 -104.5339 239° Southwest 388 447 15,200 -1,610 Descending Denver Center
Sat 09:03:16 PM 39.8153 -104.6536 239° Southwest 384 442 13,500 -1,707 Descending Denver Center
Sat 09:04:17 PM 39.7647 -104.7686 240° Southwest 360 414 11,700 -1,574 Descending Denver Center
Sat 09:05:18 PM 39.7156 -104.8575 234° Southwest 286 329 10,300 -1,317 Descending Denver Center
Sat 09:06:20 PM 39.6567 -104.8908 204° Southwest 241 277 9,000 -1,122 Descending Denver Center
Sat 09:07:21 PM 39.5961 -104.9225 202° Southwest 237 273 8,000 -492 Descending Denver Center
Sat 09:08:22 PM 39.5342 -104.9550 202° Southwest 240 276 8,000  Level Denver Center
Sat 09:09:24 PM 39.4658 -104.9686 189° South 230 265 8,000  Level Denver Center
Sat 09:10:25 PM 39.4075 -104.9447 162° South 239 275 8,000  Level Denver Center
Sat 09:11:27 PM 39.3858 -104.8661 110° East 243 280 8,000  Level Denver Center
Sat 09:12:28 PM 39.4419 -104.8439 17° North 213 245 8,000 -393 Level Denver Center
Sat 09:13:29 PM 39.4856 -104.8475 356° North 154 177 7,200 -732 Descending Denver Center
Sat 09:14:31 PM 39.5206 -104.8486 359° North 130 150 6,500 -634 Descending Denver Center
Sat 09:15:32 PM 39.5539 -104.8508 357° North 126 145 5,900 -590 Descending Denver Center

Login

Don't have an account? Register now (free) for customized features, flight alerts, and more!